createdAt,value
2019-05-12T00:00:35.869Z,99.99
2019-05-12T00:01:35.839Z,99.99
2019-05-12T00:02:35.807Z,99.99
2019-05-12T00:03:37.747Z,99.99
2019-05-12T00:04:35.746Z,99.99
2019-05-12T00:05:35.715Z,99.99
2019-05-12T00:06:35.689Z,99.99
2019-05-12T00:07:37.943Z,99.99
2019-05-12T00:08:35.622Z,99.99
2019-05-12T00:09:35.591Z,99.99
2019-05-12T00:10:35.561Z,99.99
2019-05-12T00:11:37.761Z,99.99
2019-05-12T00:12:35.500Z,99.99
2019-05-12T00:13:35.469Z,99.99
2019-05-12T00:14:35.438Z,99.99
2019-05-12T00:15:35.407Z,99.99
2019-05-12T00:16:35.376Z,99.99
2019-05-12T00:17:35.345Z,99.99
2019-05-12T00:18:37.628Z,99.99
2019-05-12T00:19:37.631Z,99.99
2019-05-12T00:20:35.253Z,99.99
2019-05-12T00:21:37.632Z,99.99
2019-05-12T00:22:35.191Z,99.99
2019-05-12T00:23:35.162Z,99.99
2019-05-12T00:24:35.130Z,99.99
2019-05-12T00:25:35.100Z,99.99
2019-05-12T00:26:35.069Z,99.99
2019-05-12T00:27:35.039Z,99.99
2019-05-12T00:28:35.009Z,99.99
2019-05-12T00:29:34.977Z,99.99
2019-05-12T00:30:34.954Z,99.99
2019-05-12T00:31:34.917Z,99.99
2019-05-12T00:32:34.886Z,99.99
2019-05-12T00:33:34.854Z,99.99
2019-05-12T00:34:34.823Z,99.99
2019-05-12T00:35:34.794Z,99.99
2019-05-12T00:36:34.762Z,99.99
2019-05-12T00:37:34.732Z,99.99
2019-05-12T00:38:34.702Z,99.99
2019-05-12T00:39:34.671Z,99.99
2019-05-12T00:40:34.640Z,99.99
2019-05-12T00:41:34.609Z,99.99
2019-05-12T00:42:34.578Z,99.99
2019-05-12T00:43:34.549Z,99.99
2019-05-12T00:44:34.516Z,99.99
2019-05-12T00:45:34.488Z,99.99
2019-05-12T00:46:34.454Z,99.99
2019-05-12T00:47:34.424Z,99.99
2019-05-12T00:48:34.394Z,99.99
2019-05-12T00:49:34.363Z,99.99
2019-05-12T00:50:34.338Z,99.99
2019-05-12T00:51:34.364Z,99.99
2019-05-12T00:52:34.271Z,99.99
2019-05-12T00:53:39.580Z,99.99
2019-05-12T00:54:34.208Z,99.99
2019-05-12T00:55:34.177Z,99.99
2019-05-12T00:56:34.148Z,99.99
2019-05-12T00:57:34.117Z,99.99
2019-05-12T00:58:34.085Z,99.99
2019-05-12T00:59:34.055Z,99.99
2019-05-12T01:00:34.030Z,99.99
2019-05-12T01:01:33.994Z,99.99
2019-05-12T01:02:33.964Z,99.99
2019-05-12T01:03:33.931Z,99.99
2019-05-12T01:04:33.902Z,99.99
2019-05-12T01:05:33.871Z,99.99
2019-05-12T01:06:33.839Z,99.99
2019-05-12T01:07:33.809Z,99.99
2019-05-12T01:08:33.778Z,99.99
2019-05-12T01:09:33.748Z,99.99
2019-05-12T01:10:33.716Z,99.99
2019-05-12T01:11:33.685Z,99.99
2019-05-12T01:12:33.655Z,99.99
2019-05-12T01:13:33.624Z,99.99
2019-05-12T01:14:33.593Z,99.99
2019-05-12T01:15:33.561Z,99.99
2019-05-12T01:16:33.556Z,99.99
2019-05-12T01:17:33.499Z,99.99
2019-05-12T01:18:33.470Z,99.99
2019-05-12T01:19:33.439Z,99.99
2019-05-12T01:20:33.411Z,99.99
2019-05-12T01:21:33.378Z,99.99
2019-05-12T01:22:33.346Z,99.99
2019-05-12T01:23:33.315Z,99.99
2019-05-12T01:24:33.289Z,99.99
2019-05-12T01:25:33.259Z,99.99
2019-05-12T01:26:33.222Z,99.99
2019-05-12T01:27:33.192Z,99.99
2019-05-12T01:28:33.161Z,99.99
2019-05-12T01:29:33.132Z,99.99
2019-05-12T01:30:33.107Z,99.99
2019-05-12T01:31:33.068Z,99.99
2019-05-12T01:32:33.037Z,99.99
2019-05-12T01:33:33.008Z,99.99
2019-05-12T01:34:32.976Z,99.99
2019-05-12T01:35:32.943Z,99.99
2019-05-12T01:36:32.913Z,99.99
2019-05-12T01:37:32.887Z,99.99
2019-05-12T01:38:32.851Z,99.99
2019-05-12T01:39:32.820Z,99.99
2019-05-12T01:40:32.789Z,99.99
2019-05-12T01:41:32.759Z,99.99
2019-05-12T01:42:32.731Z,99.99
2019-05-12T01:43:32.696Z,99.99
2019-05-12T01:44:32.667Z,99.99
2019-05-12T01:45:32.635Z,99.99
2019-05-12T01:46:32.607Z,99.99
2019-05-12T01:47:32.573Z,99.99
2019-05-12T01:48:32.543Z,99.99
2019-05-12T01:49:32.513Z,99.99
2019-05-12T01:50:32.480Z,99.99
2019-05-12T01:51:32.448Z,99.99
2019-05-12T01:52:32.419Z,99.99
2019-05-12T01:53:32.386Z,99.99
2019-05-12T01:54:32.354Z,99.99
2019-05-12T01:55:32.326Z,99.99
2019-05-12T01:56:32.294Z,99.99
2019-05-12T01:57:32.261Z,99.99
2019-05-12T01:58:32.230Z,99.99
2019-05-12T01:59:32.199Z,99.99
2019-05-12T02:00:32.171Z,99.99
2019-05-12T02:01:32.188Z,99.99
2019-05-12T02:02:32.105Z,99.99
2019-05-12T02:03:32.075Z,99.99
2019-05-12T02:04:32.044Z,99.99
2019-05-12T02:05:32.014Z,99.99
2019-05-12T02:06:31.983Z,99.99
2019-05-12T02:07:31.952Z,99.99
2019-05-12T02:08:31.920Z,99.99
2019-05-12T02:09:31.891Z,99.99
2019-05-12T02:10:31.861Z,99.99
2019-05-12T02:11:31.829Z,99.99
2019-05-12T02:12:31.797Z,99.99
2019-05-12T02:13:31.765Z,99.99
2019-05-12T02:14:31.735Z,99.99
2019-05-12T02:15:31.704Z,99.99
2019-05-12T02:16:31.671Z,99.99
2019-05-12T02:17:31.641Z,99.99
2019-05-12T02:18:31.607Z,99.99
2019-05-12T02:19:31.579Z,99.99
2019-05-12T02:20:31.547Z,99.99
2019-05-12T02:21:31.517Z,99.99
2019-05-12T02:22:31.485Z,99.99
2019-05-12T02:23:31.453Z,99.99
2019-05-12T02:24:31.427Z,99.99
2019-05-12T02:25:31.392Z,99.99
2019-05-12T02:26:31.360Z,99.99
2019-05-12T02:27:31.328Z,99.99
2019-05-12T02:28:31.301Z,99.99
2019-05-12T02:29:31.268Z,99.99
2019-05-12T02:30:31.236Z,99.99
2019-05-12T02:31:31.204Z,99.99
2019-05-12T02:32:43.334Z,99.99
2019-05-12T02:33:31.144Z,99.99
2019-05-12T02:34:31.113Z,99.99
2019-05-12T02:35:31.081Z,99.99
2019-05-12T02:36:33.983Z,99.99
2019-05-12T02:37:31.018Z,99.99
2019-05-12T02:38:32.952Z,99.99
2019-05-12T02:39:30.957Z,99.99
2019-05-12T02:40:34.326Z,99.99
2019-05-12T02:41:30.894Z,99.99
2019-05-12T02:42:30.862Z,99.99
2019-05-12T02:43:30.830Z,99.99
2019-05-12T02:44:30.813Z,99.99
2019-05-12T02:45:30.769Z,99.99
2019-05-12T02:46:30.738Z,99.99
2019-05-12T02:47:30.706Z,99.99
2019-05-12T02:48:30.676Z,99.99
2019-05-12T02:49:30.643Z,99.99
2019-05-12T02:50:30.612Z,99.99
2019-05-12T02:51:30.582Z,99.99
2019-05-12T02:52:30.550Z,99.99
2019-05-12T02:53:30.518Z,99.99
2019-05-12T02:54:47.044Z,99.99
2019-05-12T02:55:30.456Z,99.99
2019-05-12T02:56:30.424Z,99.99
2019-05-12T02:57:30.393Z,99.99
2019-05-12T02:58:30.362Z,99.99
2019-05-12T02:59:30.332Z,99.99
2019-05-12T03:00:30.301Z,99.99
2019-05-12T03:01:30.270Z,99.99
2019-05-12T03:02:30.239Z,99.99
2019-05-12T03:03:30.217Z,99.99
2019-05-12T03:04:30.174Z,99.99
2019-05-12T03:05:30.151Z,99.99
2019-05-12T03:06:30.115Z,99.99
2019-05-12T03:07:30.079Z,99.99
2019-05-12T03:08:30.052Z,99.99
2019-05-12T03:09:30.016Z,99.99
2019-05-12T03:10:29.994Z,99.99
2019-05-12T03:11:29.954Z,99.99
2019-05-12T03:12:29.924Z,99.99
2019-05-12T03:13:29.895Z,99.99
2019-05-12T03:14:29.861Z,99.99
2019-05-12T03:15:29.829Z,99.99
2019-05-12T03:16:29.799Z,99.99
2019-05-12T03:17:29.767Z,99.99
2019-05-12T03:18:29.743Z,99.99
2019-05-12T03:19:29.704Z,99.99
2019-05-12T03:20:29.678Z,99.99
2019-05-12T03:21:29.645Z,99.99
2019-05-12T03:22:29.610Z,99.99
2019-05-12T03:23:29.584Z,99.99
2019-05-12T03:24:29.546Z,99.99
2019-05-12T03:25:30.207Z,99.99
2019-05-12T03:26:29.484Z,99.99
2019-05-12T03:27:29.454Z,99.99
2019-05-12T03:28:29.423Z,99.99
2019-05-12T03:29:29.391Z,99.99
2019-05-12T03:30:29.858Z,99.99
2019-05-12T03:31:31.719Z,99.99
2019-05-12T03:32:29.296Z,99.99
2019-05-12T03:33:40.663Z,99.99
2019-05-12T03:34:29.973Z,99.99
2019-05-12T03:35:35.164Z,99.99
2019-05-12T03:36:34.553Z,99.99
2019-05-12T03:37:31.275Z,99.99
2019-05-12T03:38:29.135Z,99.99
2019-05-12T03:39:29.075Z,99.99
2019-05-12T03:40:29.044Z,99.99
2019-05-12T03:41:29.014Z,99.99
2019-05-12T03:42:28.981Z,99.99
2019-05-12T03:43:28.950Z,99.99
2019-05-12T03:44:28.917Z,99.99
2019-05-12T03:45:28.889Z,99.99
2019-05-12T03:46:28.854Z,99.99
2019-05-12T03:47:28.823Z,99.99
2019-05-12T03:48:28.792Z,99.99
2019-05-12T03:49:28.762Z,99.99
2019-05-12T03:50:28.729Z,99.99
2019-05-12T03:51:28.707Z,99.99
2019-05-12T03:52:28.679Z,99.99
2019-05-12T03:53:28.635Z,99.99
2019-05-12T03:54:28.603Z,99.99
2019-05-12T03:55:36.000Z,99.99
2019-05-12T03:56:28.543Z,99.99
2019-05-12T03:57:28.510Z,99.99
2019-05-12T03:58:28.478Z,99.99
2019-05-12T03:59:28.454Z,99.99
2019-05-12T04:00:28.416Z,99.99
2019-05-12T04:01:28.383Z,99.99
2019-05-12T04:02:28.352Z,99.99
2019-05-12T04:03:28.321Z,99.99
2019-05-12T04:04:28.290Z,99.99
2019-05-12T04:05:28.257Z,99.99
2019-05-12T04:06:28.225Z,99.99
2019-05-12T04:07:28.196Z,99.99
2019-05-12T04:08:28.163Z,99.99
2019-05-12T04:09:28.134Z,99.99
2019-05-12T04:10:28.101Z,99.99
2019-05-12T04:11:28.071Z,99.99
2019-05-12T04:12:28.038Z,99.99
2019-05-12T04:13:28.007Z,99.99
2019-05-12T04:14:27.973Z,99.99
2019-05-12T04:15:27.944Z,99.99
2019-05-12T04:16:27.912Z,99.99
2019-05-12T04:17:27.882Z,99.99
2019-05-12T04:18:27.848Z,99.99
2019-05-12T04:19:27.818Z,99.99
2019-05-12T04:20:27.806Z,99.99
2019-05-12T04:21:27.755Z,99.99
2019-05-12T04:22:27.723Z,99.99
2019-05-12T04:23:27.692Z,99.99
2019-05-12T04:24:27.660Z,99.99
2019-05-12T04:25:44.816Z,99.99
2019-05-12T04:26:27.598Z,99.99
2019-05-12T04:27:27.576Z,99.99
2019-05-12T04:28:27.549Z,99.99
2019-05-12T04:29:27.510Z,99.99
2019-05-12T04:30:27.476Z,99.99
2019-05-12T04:31:27.442Z,99.99
2019-05-12T04:32:27.411Z,99.99
2019-05-12T04:33:27.379Z,99.99
2019-05-12T04:34:27.347Z,99.99
2019-05-12T04:35:27.314Z,99.99
2019-05-12T04:36:27.288Z,99.99
2019-05-12T04:37:27.254Z,99.99
2019-05-12T04:38:27.222Z,99.99
2019-05-12T04:39:27.202Z,99.99
2019-05-12T04:40:27.163Z,99.99
2019-05-12T04:41:27.126Z,99.99
2019-05-12T04:42:27.096Z,99.99
2019-05-12T04:43:27.066Z,99.99
2019-05-12T04:44:27.038Z,99.99
2019-05-12T04:45:27.009Z,99.99
2019-05-12T04:46:26.989Z,99.99
2019-05-12T04:47:26.942Z,99.99
2019-05-12T04:48:26.936Z,99.99
2019-05-12T04:49:26.880Z,99.99
2019-05-12T04:50:26.874Z,99.99
2019-05-12T04:51:26.817Z,99.99
2019-05-12T04:52:26.787Z,99.99
2019-05-12T04:53:26.755Z,99.99
2019-05-12T04:54:26.723Z,99.99
2019-05-12T04:55:26.692Z,99.99
2019-05-12T04:56:26.665Z,99.99
2019-05-12T04:57:26.631Z,99.99
2019-05-12T04:58:26.601Z,99.99
2019-05-12T04:59:26.569Z,99.99
2019-05-12T05:00:26.538Z,99.99
2019-05-12T05:01:26.516Z,99.99
2019-05-12T05:02:26.476Z,99.99
2019-05-12T05:03:26.445Z,99.99
2019-05-12T05:04:26.415Z,99.99
2019-05-12T05:05:26.384Z,99.99
2019-05-12T05:06:26.351Z,99.99
2019-05-12T05:07:26.321Z,99.99
2019-05-12T05:08:26.291Z,99.99
2019-05-12T05:09:26.264Z,99.99
2019-05-12T05:10:26.230Z,99.99
2019-05-12T05:11:26.199Z,99.99
2019-05-12T05:12:26.168Z,99.99
2019-05-12T05:13:26.138Z,99.99
2019-05-12T05:14:26.114Z,99.99
2019-05-12T05:15:26.076Z,99.99
2019-05-12T05:16:26.046Z,99.99
2019-05-12T05:17:26.015Z,99.99
2019-05-12T05:18:25.982Z,99.99
2019-05-12T05:19:25.954Z,99.99
2019-05-12T05:20:25.926Z,99.99
2019-05-12T05:21:25.895Z,99.99
2019-05-12T05:22:25.862Z,99.99
2019-05-12T05:23:25.833Z,96.32
2019-05-12T05:24:25.804Z,92.32
2019-05-12T05:25:25.774Z,90.93
2019-05-12T05:26:28.247Z,90.26
2019-05-12T05:27:25.719Z,87.73
2019-05-12T05:28:25.689Z,84.62
2019-05-12T05:29:25.662Z,83.86
2019-05-12T05:30:25.634Z,83.28
2019-05-12T05:31:25.607Z,83.24
2019-05-12T05:32:25.579Z,83.91
2019-05-12T05:33:25.553Z,83.28
2019-05-12T05:34:25.526Z,82.14
2019-05-12T05:35:28.879Z,82.14
2019-05-12T05:36:25.474Z,81.27
2019-05-12T05:37:25.449Z,80.61
2019-05-12T05:38:25.421Z,81.71
2019-05-12T05:39:25.396Z,81.56
2019-05-12T05:40:30.140Z,81.09
2019-05-12T05:41:25.348Z,80.80
2019-05-12T05:42:30.679Z,82.29
2019-05-12T05:43:25.296Z,82.19
2019-05-12T05:44:29.079Z,82.90
2019-05-12T05:45:26.475Z,79.94
2019-05-12T05:46:25.223Z,79.79
2019-05-12T05:47:28.594Z,78.89
2019-05-12T05:48:25.175Z,78.79
2019-05-12T05:49:25.154Z,79.56
2019-05-12T05:50:29.502Z,78.89
2019-05-12T05:51:25.102Z,79.46
2019-05-12T05:52:33.109Z,78.93
2019-05-12T05:53:25.055Z,78.07
2019-05-12T05:54:31.340Z,77.34
2019-05-12T05:55:25.007Z,76.62
2019-05-12T05:56:38.899Z,75.51
2019-05-12T05:57:28.575Z,73.91
2019-05-12T05:58:26.165Z,71.81
2019-05-12T05:59:31.167Z,70.76
2019-05-12T06:00:26.353Z,69.89
2019-05-12T06:01:24.870Z,68.97
2019-05-12T06:02:32.073Z,69.35
2019-05-12T06:03:27.976Z,69.13
2019-05-12T06:04:24.801Z,68.94
2019-05-12T06:05:29.380Z,68.94
2019-05-12T06:06:24.755Z,69.32
2019-05-12T06:07:34.987Z,70.09
2019-05-12T06:08:24.713Z,69.29
2019-05-12T06:09:24.691Z,70.05
2019-05-12T06:10:34.820Z,70.15
2019-05-12T06:11:28.397Z,70.24
2019-05-12T06:12:24.625Z,70.15
2019-05-12T06:13:29.973Z,70.72
2019-05-12T06:14:24.583Z,70.15
2019-05-12T06:15:24.561Z,71.20
2019-05-12T06:16:25.210Z,71.73
2019-05-12T06:17:24.523Z,71.83
2019-05-12T06:18:24.494Z,71.97
2019-05-12T06:19:26.296Z,70.95
2019-05-12T06:20:24.456Z,70.05
2019-05-12T06:21:29.202Z,69.76
2019-05-12T06:22:24.405Z,69.67
2019-05-12T06:23:28.962Z,69.67
2019-05-12T06:24:24.362Z,70.68
2019-05-12T06:25:26.498Z,70.40
2019-05-12T06:26:30.811Z,71.83
2019-05-12T06:27:24.479Z,72.69
2019-05-12T06:28:24.276Z,71.48
2019-05-12T06:29:25.089Z,70.18
2019-05-12T06:30:24.402Z,68.36
2019-05-12T06:31:29.637Z,67.54
2019-05-12T06:32:25.119Z,67.50
2019-05-12T06:33:31.293Z,68.27
2019-05-12T06:34:24.172Z,67.34
2019-05-12T06:35:24.192Z,66.38
2019-05-12T06:36:27.083Z,66.96
2019-05-12T06:37:24.081Z,68.29
2019-05-12T06:38:24.058Z,70.05
2019-05-12T06:39:24.038Z,69.29
2019-05-12T06:40:24.467Z,68.23
2019-05-12T06:41:25.891Z,68.46
2019-05-12T06:42:24.266Z,67.69
2019-05-12T06:43:24.410Z,67.91
2019-05-12T06:44:24.150Z,66.55
2019-05-12T06:45:28.228Z,64.50
2019-05-12T06:46:25.969Z,64.76
2019-05-12T06:47:24.155Z,63.51
2019-05-12T06:48:25.658Z,62.42
2019-05-12T06:49:24.610Z,64.85
2019-05-12T06:50:23.879Z,66.45
2019-05-12T06:51:25.929Z,66.35
2019-05-12T06:52:23.831Z,66.89
2019-05-12T06:53:29.100Z,67.50
2019-05-12T06:54:24.801Z,67.15
2019-05-12T06:55:23.865Z,66.19
2019-05-12T06:56:23.687Z,65.91
2019-05-12T06:57:28.383Z,65.30
2019-05-12T06:58:27.592Z,66.35
2019-05-12T06:59:23.835Z,65.97
2019-05-12T07:00:30.924Z,66.00
2019-05-12T07:01:24.173Z,66.00
2019-05-12T07:02:24.488Z,63.73
2019-05-12T07:03:29.465Z,62.87
2019-05-12T07:04:24.070Z,62.93
2019-05-12T07:05:27.935Z,64.12
2019-05-12T07:06:24.715Z,63.73
2019-05-12T07:07:27.063Z,63.32
2019-05-12T07:08:27.491Z,63.13
2019-05-12T07:09:28.014Z,63.29
2019-05-12T07:10:36.756Z,63.96
2019-05-12T07:11:24.234Z,64.53
2019-05-12T07:12:24.937Z,64.89
2019-05-12T07:13:29.266Z,63.64
2019-05-12T07:14:27.103Z,62.87
2019-05-12T07:15:23.471Z,62.52
2019-05-12T07:16:29.809Z,61.59
2019-05-12T07:17:23.885Z,60.99
2019-05-12T07:18:31.731Z,60.89
2019-05-12T07:19:25.494Z,60.22
2019-05-12T07:20:24.050Z,60.12
2019-05-12T07:21:24.870Z,60.82
2019-05-12T07:22:25.761Z,59.29
2019-05-12T07:23:25.961Z,59.77
2019-05-12T07:24:23.855Z,59.67
2019-05-12T07:25:31.116Z,59.67
2019-05-12T07:26:23.606Z,60.22
2019-05-12T07:27:35.640Z,60.12
2019-05-12T07:28:23.687Z,60.70
2019-05-12T07:29:23.847Z,58.62
2019-05-12T07:30:24.030Z,59.19
2019-05-12T07:31:23.399Z,59.38
2019-05-12T07:32:24.606Z,59.09
2019-05-12T07:33:23.318Z,58.33
2019-05-12T07:34:24.028Z,58.62
2019-05-12T07:35:23.982Z,58.33
2019-05-12T07:36:24.281Z,57.43
2019-05-12T07:37:23.645Z,58.46
2019-05-12T07:38:25.721Z,60.38
2019-05-12T07:39:24.166Z,60.47
2019-05-12T07:40:25.404Z,60.38
2019-05-12T07:41:23.721Z,59.80
2019-05-12T07:42:31.460Z,60.03
2019-05-12T07:43:24.281Z,59.93
2019-05-12T07:44:25.136Z,60.44
2019-05-12T07:45:25.211Z,59.86
2019-05-12T07:46:25.020Z,59.34
2019-05-12T07:47:27.332Z,56.98
2019-05-12T07:48:23.306Z,55.98
2019-05-12T07:49:33.814Z,54.63
2019-05-12T07:50:26.514Z,54.69
2019-05-12T07:51:24.138Z,54.69
2019-05-12T07:52:24.284Z,54.69
2019-05-12T07:53:23.375Z,54.96
2019-05-12T07:54:23.572Z,56.78
2019-05-12T07:55:23.719Z,56.01
2019-05-12T07:56:25.948Z,56.37
2019-05-12T07:57:24.208Z,56.56
2019-05-12T07:58:23.950Z,55.99
2019-05-12T07:59:28.265Z,56.59
2019-05-12T08:00:25.219Z,56.56
2019-05-12T08:01:23.613Z,56.66
2019-05-12T08:02:31.206Z,56.11
2019-05-12T08:03:24.309Z,54.67
2019-05-12T08:04:23.938Z,56.34
2019-05-12T08:05:24.028Z,56.46
2019-05-12T08:06:24.334Z,57.52
2019-05-12T08:07:28.343Z,56.78
2019-05-12T08:08:23.638Z,56.66
2019-05-12T08:09:24.050Z,56.92
2019-05-12T08:10:23.433Z,57.90
2019-05-12T08:11:23.595Z,57.14
2019-05-12T08:12:23.776Z,56.98
2019-05-12T08:13:23.833Z,55.98
2019-05-12T08:14:28.839Z,54.57
2019-05-12T08:15:24.494Z,56.11
2019-05-12T08:16:25.665Z,56.59
2019-05-12T08:17:24.444Z,55.60
2019-05-12T08:18:24.470Z,55.15
2019-05-12T08:19:28.062Z,55.15
2019-05-12T08:20:23.868Z,54.34
2019-05-12T08:21:24.141Z,53.06
2019-05-12T08:22:27.184Z,54.53
2019-05-12T08:23:23.451Z,53.66
2019-05-12T08:24:23.759Z,53.28
2019-05-12T08:25:24.818Z,52.89
2019-05-12T08:26:23.759Z,51.57
2019-05-12T08:27:23.435Z,52.15
2019-05-12T08:28:27.899Z,51.89
2019-05-12T08:29:24.385Z,51.19
2019-05-12T08:30:23.940Z,51.21
2019-05-12T08:31:23.390Z,51.29
2019-05-12T08:32:23.775Z,50.87
2019-05-12T08:33:23.777Z,50.85
2019-05-12T08:34:23.698Z,52.03
2019-05-12T08:35:26.906Z,51.04
2019-05-12T08:36:23.595Z,51.76
2019-05-12T08:37:21.655Z,50.40
2019-05-12T08:38:21.634Z,51.62
2019-05-12T08:39:25.362Z,52.32
2019-05-12T08:40:21.599Z,52.63
2019-05-12T08:41:23.507Z,51.43
2019-05-12T08:42:23.889Z,51.72
2019-05-12T08:43:23.842Z,51.40
2019-05-12T08:44:24.962Z,51.72
2019-05-12T08:45:25.133Z,51.04
2019-05-12T08:46:24.115Z,53.06
2019-05-12T08:47:23.662Z,50.76
2019-05-12T08:48:24.817Z,50.73
2019-05-12T08:49:23.495Z,51.57
2019-05-12T08:50:23.120Z,54.12
2019-05-12T08:51:21.408Z,52.39
2019-05-12T08:52:23.454Z,51.53
2019-05-12T08:53:23.562Z,50.76
2019-05-12T08:54:23.310Z,51.62
2019-05-12T08:55:25.040Z,51.26
2019-05-12T08:56:25.531Z,51.23
2019-05-12T08:57:21.282Z,50.76
2019-05-12T08:58:31.598Z,52.03
2019-05-12T08:59:26.517Z,50.08
2019-05-12T09:00:21.226Z,50.25
2019-05-12T09:01:26.501Z,50.73
2019-05-12T09:02:21.187Z,51.98
2019-05-12T09:03:28.099Z,52.05
2019-05-12T09:04:21.149Z,52.53
2019-05-12T09:05:28.072Z,53.61
2019-05-12T09:06:21.111Z,52.46
2019-05-12T09:07:21.095Z,50.92
2019-05-12T09:08:21.079Z,50.73
2019-05-12T09:09:23.153Z,50.73
2019-05-12T09:10:21.578Z,50.46
2019-05-12T09:11:21.017Z,49.87
2019-05-12T09:12:23.174Z,50.63
2019-05-12T09:13:23.295Z,51.11
2019-05-12T09:14:20.961Z,51.57
2019-05-12T09:15:20.941Z,53.11
2019-05-12T09:16:20.922Z,52.48
2019-05-12T09:17:23.127Z,50.78
2019-05-12T09:18:20.884Z,50.42
2019-05-12T09:19:24.898Z,48.90
2019-05-12T09:20:20.846Z,48.13
2019-05-12T09:21:23.711Z,48.11
2019-05-12T09:22:21.131Z,48.18
2019-05-12T09:23:20.791Z,49.38
2019-05-12T09:24:25.340Z,49.60
2019-05-12T09:25:20.755Z,50.46
2019-05-12T09:26:24.954Z,50.87
2019-05-12T09:27:20.716Z,50.49
2019-05-12T09:28:20.697Z,49.12
2019-05-12T09:29:20.679Z,49.69
2019-05-12T09:30:20.660Z,49.79
2019-05-12T09:31:25.347Z,48.93
2019-05-12T09:32:20.623Z,49.12
2019-05-12T09:33:21.545Z,49.51
2019-05-12T09:34:20.587Z,49.41
2019-05-12T09:35:20.568Z,50.46
2019-05-12T09:36:21.786Z,49.15
2019-05-12T09:37:20.531Z,50.20
2019-05-12T09:38:23.109Z,49.82
2019-05-12T09:39:20.493Z,49.60
2019-05-12T09:40:22.098Z,49.31
2019-05-12T09:41:20.461Z,50.56
2019-05-12T09:42:25.643Z,50.01
2019-05-12T09:43:20.420Z,48.95
2019-05-12T09:44:25.576Z,48.47
2019-05-12T09:45:20.382Z,47.30
2019-05-12T09:46:20.363Z,46.64
2019-05-12T09:47:25.191Z,47.68
2019-05-12T09:48:20.328Z,49.24
2019-05-12T09:49:22.791Z,46.47
2019-05-12T09:50:20.645Z,46.28
2019-05-12T09:51:20.270Z,47.15
2019-05-12T09:52:25.568Z,47.24
2019-05-12T09:53:20.234Z,45.92
2019-05-12T09:54:20.215Z,46.52
2019-05-12T09:55:22.089Z,45.15
2019-05-12T09:56:20.178Z,43.88
2019-05-12T09:57:20.160Z,43.78
2019-05-12T09:58:23.116Z,44.07
2019-05-12T09:59:23.003Z,43.78
2019-05-12T10:00:20.106Z,43.97
2019-05-12T10:01:20.087Z,42.99
2019-05-12T10:02:20.960Z,43.54
2019-05-12T10:03:20.049Z,44.34
2019-05-12T10:04:20.031Z,44.07
2019-05-12T10:05:20.013Z,44.09
2019-05-12T10:06:21.357Z,43.32
2019-05-12T10:07:19.975Z,42.47
2019-05-12T10:08:19.957Z,40.16
2019-05-12T10:09:20.128Z,38.41
2019-05-12T10:10:19.920Z,38.87
2019-05-12T10:11:20.997Z,39.81
2019-05-12T10:12:19.883Z,41.18
2019-05-12T10:13:20.304Z,40.89
2019-05-12T10:14:19.867Z,40.88
2019-05-12T10:15:26.753Z,40.80
2019-05-12T10:16:19.811Z,42.14
2019-05-12T10:17:20.369Z,41.68
2019-05-12T10:18:19.773Z,39.56
2019-05-12T10:19:19.755Z,38.87
2019-05-12T10:20:21.542Z,40.12
2019-05-12T10:21:19.723Z,42.53
2019-05-12T10:22:19.701Z,43.99
2019-05-12T10:23:24.143Z,43.44
2019-05-12T10:24:19.665Z,44.32
2019-05-12T10:25:23.137Z,42.13
2019-05-12T10:26:19.625Z,40.76
2019-05-12T10:27:21.186Z,40.95
2019-05-12T10:28:19.588Z,40.72
2019-05-12T10:29:20.912Z,42.74
2019-05-12T10:30:19.552Z,39.37
2019-05-12T10:31:19.539Z,38.41
2019-05-12T10:32:19.518Z,38.39
2019-05-12T10:33:19.498Z,39.14
2019-05-12T10:34:19.480Z,40.12
2019-05-12T10:35:21.582Z,39.76
2019-05-12T10:36:19.443Z,38.79
2019-05-12T10:37:25.280Z,38.89
2019-05-12T10:38:19.404Z,38.87
2019-05-12T10:39:19.387Z,38.31
2019-05-12T10:40:19.370Z,37.04
2019-05-12T10:41:19.349Z,36.18
2019-05-12T10:42:19.330Z,36.19
2019-05-12T10:43:19.312Z,36.97
2019-05-12T10:44:19.293Z,37.27
2019-05-12T10:45:20.635Z,35.91
2019-05-12T10:46:26.851Z,36.19
2019-05-12T10:47:19.239Z,36.99
2019-05-12T10:48:19.219Z,35.93
2019-05-12T10:49:19.201Z,36.87
2019-05-12T10:50:19.181Z,38.62
2019-05-12T10:51:19.163Z,37.39
2019-05-12T10:52:19.144Z,37.60
2019-05-12T10:53:19.126Z,36.04
2019-05-12T10:54:19.108Z,35.93
2019-05-12T10:55:19.090Z,37.18
2019-05-12T10:56:19.072Z,37.68
2019-05-12T10:57:19.051Z,37.68
2019-05-12T10:58:19.038Z,35.67
2019-05-12T10:59:30.264Z,36.35
2019-05-12T11:00:25.186Z,34.80
2019-05-12T11:01:18.979Z,32.65
2019-05-12T11:02:20.399Z,31.38
2019-05-12T11:03:18.942Z,31.67
2019-05-12T11:04:25.043Z,32.65
2019-05-12T11:05:25.514Z,31.51
2019-05-12T11:06:18.885Z,31.51
2019-05-12T11:07:22.898Z,31.24
2019-05-12T11:08:18.851Z,30.74
2019-05-12T11:09:21.305Z,30.55
2019-05-12T11:10:20.144Z,31.80
2019-05-12T11:11:18.793Z,33.25
2019-05-12T11:12:23.987Z,32.56
2019-05-12T11:13:18.758Z,32.65
2019-05-12T11:14:20.340Z,33.53
2019-05-12T11:15:18.719Z,32.76
2019-05-12T11:16:22.736Z,32.20
2019-05-12T11:17:18.683Z,32.20
2019-05-12T11:18:20.593Z,30.55
2019-05-12T11:19:18.645Z,31.90
2019-05-12T11:20:18.627Z,31.62
2019-05-12T11:21:18.609Z,31.24
2019-05-12T11:22:18.588Z,31.93
2019-05-12T11:23:18.572Z,31.15
2019-05-12T11:24:18.552Z,31.04
2019-05-12T11:25:18.537Z,31.81
2019-05-12T11:26:18.516Z,31.33
2019-05-12T11:27:18.497Z,30.96
2019-05-12T11:28:18.503Z,32.51
2019-05-12T11:29:18.459Z,32.20
2019-05-12T11:30:18.442Z,32.87
2019-05-12T11:31:18.429Z,32.07
2019-05-12T11:32:18.407Z,32.67
2019-05-12T11:33:18.456Z,32.18
2019-05-12T11:34:18.368Z,33.05
2019-05-12T11:35:18.348Z,32.68
2019-05-12T11:36:18.330Z,31.81
2019-05-12T11:37:18.313Z,31.60
2019-05-12T11:38:18.292Z,30.45
2019-05-12T11:39:18.273Z,32.18
2019-05-12T11:40:18.255Z,30.55
2019-05-12T11:41:20.194Z,32.29
2019-05-12T11:42:18.215Z,32.03
2019-05-12T11:43:18.198Z,29.31
2019-05-12T11:44:18.181Z,29.39
2019-05-12T11:45:18.161Z,29.20
2019-05-12T11:46:18.142Z,29.39
2019-05-12T11:47:24.351Z,30.64
2019-05-12T11:48:18.104Z,30.45
2019-05-12T11:49:21.823Z,32.29
2019-05-12T11:50:18.066Z,31.63
2019-05-12T11:51:20.828Z,30.98
2019-05-12T11:52:19.413Z,31.86
2019-05-12T11:53:21.754Z,29.05
2019-05-12T11:54:17.990Z,29.03
2019-05-12T11:55:21.204Z,28.76
2019-05-12T11:56:17.955Z,29.34
2019-05-12T11:57:20.084Z,28.84
2019-05-12T11:58:17.934Z,29.21
2019-05-12T11:59:17.899Z,31.45
2019-05-12T12:00:17.882Z,31.75
2019-05-12T12:01:17.862Z,30.32
2019-05-12T12:02:20.202Z,29.55
2019-05-12T12:03:18.475Z,29.66
2019-05-12T12:04:17.807Z,29.46
2019-05-12T12:05:17.790Z,28.99
2019-05-12T12:06:17.790Z,28.20
2019-05-12T12:07:17.751Z,28.97
2019-05-12T12:08:17.744Z,28.18
2019-05-12T12:09:19.001Z,28.56
2019-05-12T12:10:17.699Z,29.05
2019-05-12T12:11:24.222Z,28.95
2019-05-12T12:12:17.661Z,28.85
2019-05-12T12:13:19.387Z,29.43
2019-05-12T12:14:17.625Z,29.06
2019-05-12T12:15:20.567Z,29.16
2019-05-12T12:16:17.589Z,28.37
2019-05-12T12:17:25.432Z,29.24
2019-05-12T12:18:17.553Z,30.38
2019-05-12T12:19:17.534Z,31.37
2019-05-12T12:20:22.287Z,29.43
2019-05-12T12:21:17.512Z,29.72
2019-05-12T12:22:20.246Z,30.03
2019-05-12T12:23:17.462Z,30.24
2019-05-12T12:24:21.252Z,28.59
2019-05-12T12:25:17.433Z,28.22
2019-05-12T12:26:20.103Z,28.00
2019-05-12T12:27:17.390Z,28.95
2019-05-12T12:28:17.371Z,29.13
2019-05-12T12:29:17.354Z,29.58
2019-05-12T12:30:19.977Z,29.69
2019-05-12T12:31:17.317Z,30.00
2019-05-12T12:32:20.323Z,30.38
2019-05-12T12:33:17.283Z,29.32
2019-05-12T12:34:23.803Z,29.43
2019-05-12T12:35:17.243Z,29.43
2019-05-12T12:36:17.224Z,29.24
2019-05-12T12:37:18.814Z,30.01
2019-05-12T12:38:17.188Z,29.83
2019-05-12T12:39:17.169Z,30.21
2019-05-12T12:40:17.152Z,30.29
2019-05-12T12:41:17.136Z,30.19
2019-05-12T12:42:17.114Z,30.88
2019-05-12T12:43:17.098Z,29.61
2019-05-12T12:44:17.080Z,30.19
2019-05-12T12:45:17.060Z,31.37
2019-05-12T12:46:21.398Z,30.69
2019-05-12T12:47:17.022Z,30.41
2019-05-12T12:48:19.423Z,31.30
2019-05-12T12:49:16.986Z,30.25
2019-05-12T12:50:20.121Z,29.36
2019-05-12T12:51:17.616Z,29.64
2019-05-12T12:52:16.932Z,30.98